createdAt,value
2019-04-25T00:00:36.796Z,18.44
2019-04-25T00:03:06.836Z,18.26
2019-04-25T00:05:39.393Z,18.02
2019-04-25T00:08:11.494Z,17.83
2019-04-25T00:10:43.629Z,17.79
2019-04-25T00:13:16.766Z,17.84
2019-04-25T00:15:47.128Z,17.92
2019-04-25T00:18:17.998Z,17.70
2019-04-25T00:20:52.414Z,17.72
2019-04-25T00:23:22.046Z,17.83
2019-04-25T00:26:01.368Z,17.81
2019-04-25T00:28:31.567Z,17.79
2019-04-25T00:31:03.097Z,17.76
2019-04-25T00:33:33.134Z,17.73
2019-04-25T00:36:03.877Z,17.63
2019-04-25T00:38:33.483Z,17.61
2019-04-25T00:41:04.074Z,17.65
2019-04-25T00:43:33.702Z,17.71
2019-04-25T00:46:03.233Z,17.68
2019-04-25T00:48:34.491Z,17.63
2019-04-25T00:51:04.900Z,17.55
2019-04-25T00:53:34.407Z,17.67
2019-04-25T00:56:05.781Z,17.57
2019-04-25T00:59:02.021Z,17.60
2019-04-25T01:01:44.188Z,17.47
2019-04-25T01:04:14.616Z,17.45
2019-04-25T01:06:44.324Z,17.34
2019-04-25T01:09:17.947Z,17.32
2019-04-25T01:11:47.969Z,17.37
2019-04-25T01:14:17.630Z,17.25
2019-04-25T01:16:53.001Z,16.97
2019-04-25T01:19:23.512Z,16.98
2019-04-25T01:21:54.805Z,16.96
2019-04-25T01:24:24.845Z,16.95
2019-04-25T01:26:55.895Z,16.91
2019-04-25T01:29:25.355Z,16.68
2019-04-25T01:31:55.291Z,16.62
2019-04-25T01:34:48.475Z,16.48
2019-04-25T01:37:35.580Z,16.56
2019-04-25T01:40:23.700Z,16.54
2019-04-25T01:43:06.479Z,16.46
2019-04-25T01:45:36.268Z,16.37
2019-04-25T01:48:06.301Z,16.26
2019-04-25T01:50:36.013Z,16.29
2019-04-25T01:53:05.540Z,16.28
2019-04-25T01:55:38.125Z,16.20
2019-04-25T01:58:08.154Z,16.08
2019-04-25T02:00:43.175Z,15.64
2019-04-25T02:03:14.276Z,15.55
2019-04-25T02:05:47.307Z,15.46
2019-04-25T02:08:16.993Z,15.32
2019-04-25T02:10:50.748Z,15.24
2019-04-25T02:13:21.118Z,15.05
2019-04-25T02:15:50.649Z,14.97
2019-04-25T02:18:25.295Z,15.09
2019-04-25T02:20:59.070Z,15.19
2019-04-25T02:23:29.453Z,15.13
2019-04-25T02:26:13.411Z,15.19
2019-04-25T02:28:33.799Z,15.15
2019-04-25T02:31:08.587Z,15.10
2019-04-25T02:33:39.641Z,15.09
2019-04-25T02:36:09.147Z,15.16
2019-04-25T02:38:38.789Z,14.79
2019-04-25T02:41:09.809Z,14.90
2019-04-25T02:43:39.419Z,14.89
2019-04-25T02:46:29.691Z,14.95
2019-04-25T02:49:29.813Z,15.02
2019-04-25T02:51:59.151Z,15.07
2019-04-25T02:54:28.418Z,15.01
2019-04-25T02:56:58.423Z,14.95
2019-04-25T02:59:28.565Z,15.03
2019-04-25T03:01:59.063Z,15.05
2019-04-25T03:04:30.109Z,14.96
2019-04-25T03:07:07.502Z,14.87
2019-04-25T03:09:35.535Z,14.85
2019-04-25T03:12:07.614Z,14.81
2019-04-25T03:14:37.798Z,14.70
2019-04-25T03:17:09.736Z,14.72
2019-04-25T03:19:59.310Z,14.71
2019-04-25T03:22:30.582Z,14.66
2019-04-25T03:25:01.840Z,14.64
2019-04-25T03:27:31.543Z,14.66
2019-04-25T03:30:02.007Z,14.70
2019-04-25T03:32:31.450Z,14.68
2019-04-25T03:35:01.291Z,14.68
2019-04-25T03:37:35.280Z,14.71
2019-04-25T03:40:06.568Z,14.64
2019-04-25T03:42:38.224Z,14.63
2019-04-25T03:45:07.951Z,14.62
2019-04-25T03:47:41.124Z,14.58
2019-04-25T03:50:13.836Z,14.57
2019-04-25T03:52:43.586Z,14.54
2019-04-25T03:55:14.430Z,14.49
2019-04-25T03:57:46.872Z,14.44
2019-04-25T04:00:17.766Z,14.40
2019-04-25T04:02:47.221Z,14.37
2019-04-25T04:05:17.760Z,14.24
2019-04-25T04:07:49.361Z,14.24
2019-04-25T04:10:21.235Z,14.22
2019-04-25T04:12:54.266Z,14.24
2019-04-25T04:15:25.235Z,14.18
2019-04-25T04:18:21.808Z,14.18
2019-04-25T04:21:25.673Z,14.15
2019-04-25T04:24:14.940Z,14.12
2019-04-25T04:27:06.679Z,14.12
2019-04-25T04:29:37.635Z,14.04
2019-04-25T04:32:08.692Z,13.94
2019-04-25T04:34:40.191Z,13.96
2019-04-25T04:37:11.158Z,13.95
2019-04-25T04:39:43.736Z,13.96
2019-04-25T04:42:14.045Z,13.96
2019-04-25T04:44:44.454Z,13.97
2019-04-25T04:47:15.776Z,13.97
2019-04-25T04:49:48.792Z,14.04
2019-04-25T04:52:20.189Z,14.06
2019-04-25T04:55:03.753Z,14.06
2019-04-25T04:57:32.561Z,14.06
2019-04-25T04:59:56.660Z,14.05
2019-04-25T05:02:46.178Z,14.01
2019-04-25T05:05:34.529Z,14.07
2019-04-25T05:08:10.911Z,14.10
2019-04-25T05:10:43.072Z,14.14
2019-04-25T05:13:14.590Z,14.12
2019-04-25T05:15:46.941Z,14.13
2019-04-25T05:18:31.580Z,14.11
2019-04-25T05:20:48.608Z,14.14
2019-04-25T05:23:19.678Z,14.14
2019-04-25T05:25:49.106Z,14.13
2019-04-25T05:28:19.595Z,14.13
2019-04-25T05:30:59.683Z,14.19
2019-04-25T05:33:29.109Z,14.22
2019-04-25T05:36:01.242Z,14.29
2019-04-25T05:38:33.298Z,14.27
2019-04-25T05:41:07.691Z,14.31
2019-04-25T05:43:37.286Z,14.32
2019-04-25T05:46:06.683Z,14.31
2019-04-25T05:48:37.054Z,14.32
2019-04-25T05:51:06.665Z,14.40
2019-04-25T05:53:37.079Z,14.32
2019-04-25T05:56:06.484Z,14.30
2019-04-25T05:58:36.255Z,14.37
2019-04-25T06:01:07.104Z,14.42
2019-04-25T06:03:36.501Z,14.45
2019-04-25T06:06:07.107Z,14.48
2019-04-25T06:08:40.961Z,14.50
2019-04-25T06:11:26.561Z,14.49
2019-04-25T06:14:09.276Z,14.58
2019-04-25T06:16:43.662Z,14.62
2019-04-25T06:19:34.059Z,14.69
2019-04-25T06:22:03.997Z,14.75
2019-04-25T06:24:40.718Z,14.66
2019-04-25T06:27:31.225Z,14.73
2019-04-25T06:30:08.836Z,14.83
2019-04-25T06:32:38.878Z,14.90
2019-04-25T06:35:11.007Z,14.93
2019-04-25T06:37:40.660Z,15.04
2019-04-25T06:40:13.685Z,15.12
2019-04-25T06:42:46.682Z,15.19
2019-04-25T06:45:57.703Z,15.24
2019-04-25T06:48:40.401Z,15.28
2019-04-25T06:51:10.486Z,15.39
2019-04-25T06:53:43.608Z,15.48
2019-04-25T06:56:13.758Z,15.60
2019-04-25T06:58:43.980Z,16.35
2019-04-25T07:01:14.655Z,18.34
2019-04-25T07:03:45.848Z,19.88
2019-04-25T07:06:16.343Z,21.14
2019-04-25T07:08:46.079Z,22.41
2019-04-25T07:11:15.709Z,22.89
2019-04-25T07:13:46.652Z,22.90
2019-04-25T07:16:17.562Z,23.19
2019-04-25T07:18:48.827Z,23.64
2019-04-25T07:21:20.011Z,24.00
2019-04-25T07:23:49.483Z,24.76
2019-04-25T07:26:41.534Z,24.83
2019-04-25T07:29:33.731Z,25.12
2019-04-25T07:32:22.006Z,25.72
2019-04-25T07:34:51.428Z,25.98
2019-04-25T07:37:21.824Z,25.48
2019-04-25T07:39:54.115Z,25.23
2019-04-25T07:42:24.002Z,25.50
2019-04-25T07:44:55.404Z,25.94
2019-04-25T07:47:26.921Z,26.04
2019-04-25T07:49:57.513Z,26.90
2019-04-25T07:52:28.792Z,26.17
2019-04-25T07:54:58.314Z,26.44
2019-04-25T07:57:29.561Z,25.68
2019-04-25T07:59:59.079Z,25.38
2019-04-25T08:02:29.717Z,25.18
2019-04-25T08:05:02.182Z,25.37
2019-04-25T08:07:33.957Z,25.81
2019-04-25T08:10:06.577Z,27.30
2019-04-25T08:12:37.285Z,28.21
2019-04-25T08:15:24.017Z,28.79
2019-04-25T08:18:00.621Z,29.37
2019-04-25T08:20:32.827Z,30.06
2019-04-25T08:23:04.479Z,30.45
2019-04-25T08:25:37.856Z,31.01
2019-04-25T08:28:06.520Z,30.40
2019-04-25T08:30:38.077Z,30.23
2019-04-25T08:33:07.852Z,30.25
2019-04-25T08:35:38.254Z,29.34
2019-04-25T08:38:10.705Z,29.78
2019-04-25T08:40:42.117Z,30.35
2019-04-25T08:43:12.602Z,30.10
2019-04-25T08:45:42.109Z,30.77
2019-04-25T08:48:13.446Z,30.42
2019-04-25T08:50:50.445Z,30.87
2019-04-25T08:53:20.914Z,31.22
2019-04-25T08:56:00.284Z,31.68
2019-04-25T08:58:44.800Z,31.44
2019-04-25T09:01:34.333Z,31.60
2019-04-25T09:04:13.592Z,31.66
2019-04-25T09:06:44.285Z,31.57
2019-04-25T09:09:13.940Z,31.17
2019-04-25T09:11:47.074Z,31.17
2019-04-25T09:14:17.655Z,31.20
2019-04-25T09:16:50.206Z,31.86
2019-04-25T09:19:19.914Z,32.10
2019-04-25T09:21:53.298Z,32.16
2019-04-25T09:24:24.626Z,31.93
2019-04-25T09:26:54.219Z,32.25
2019-04-25T09:29:25.247Z,32.00
2019-04-25T09:31:56.463Z,31.91
2019-04-25T09:34:27.796Z,31.60
2019-04-25T09:36:57.825Z,31.84
2019-04-25T09:39:58.337Z,31.14
2019-04-25T09:42:28.280Z,30.44
2019-04-25T09:45:21.109Z,29.22
2019-04-25T09:47:54.507Z,28.14
2019-04-25T09:50:46.389Z,27.43
2019-04-25T09:53:23.269Z,27.44
2019-04-25T09:55:59.462Z,27.24
2019-04-25T09:58:36.447Z,26.91
2019-04-25T10:01:11.001Z,26.26
2019-04-25T10:03:43.567Z,25.90
2019-04-25T10:06:15.175Z,26.16
2019-04-25T10:08:45.401Z,26.52
2019-04-25T10:11:17.391Z,26.43
2019-04-25T10:14:04.585Z,26.16
2019-04-25T10:16:35.131Z,26.08
2019-04-25T10:19:07.257Z,25.99
2019-04-25T10:21:38.093Z,25.98
2019-04-25T10:24:10.253Z,26.09
2019-04-25T10:26:41.603Z,26.07
2019-04-25T10:29:11.172Z,25.84
2019-04-25T10:31:41.385Z,25.78
2019-04-25T10:34:10.847Z,25.76
2019-04-25T10:36:42.134Z,25.55
2019-04-25T10:39:11.774Z,25.42
2019-04-25T10:41:41.494Z,25.27
2019-04-25T10:44:14.124Z,24.95
2019-04-25T10:46:46.855Z,25.11
2019-04-25T10:49:15.298Z,25.26
2019-04-25T10:51:46.470Z,25.08
2019-04-25T10:54:16.216Z,25.07
2019-04-25T10:56:59.891Z,24.96
2019-04-25T10:59:28.647Z,24.64
2019-04-25T11:01:58.268Z,24.60
2019-04-25T11:04:36.938Z,24.76
2019-04-25T11:07:06.564Z,24.64
2019-04-25T11:09:36.224Z,24.45
2019-04-25T11:12:08.720Z,24.35
2019-04-25T11:14:38.466Z,24.31
2019-04-25T11:17:07.958Z,24.10
2019-04-25T11:19:39.003Z,24.12
2019-04-25T11:22:10.251Z,24.16
2019-04-25T11:24:41.517Z,24.03
2019-04-25T11:27:13.535Z,24.30
2019-04-25T11:29:45.054Z,24.08
2019-04-25T11:32:19.759Z,24.08
2019-04-25T11:34:49.360Z,24.16
2019-04-25T11:37:20.723Z,24.14
2019-04-25T11:40:04.318Z,24.22
2019-04-25T11:42:33.989Z,24.06
2019-04-25T11:45:06.028Z,23.96
2019-04-25T11:47:37.069Z,24.05
2019-04-25T11:50:08.938Z,24.08
2019-04-25T11:52:39.604Z,23.92
2019-04-25T11:55:10.199Z,23.95
2019-04-25T11:57:39.698Z,24.01
2019-04-25T12:00:21.519Z,23.98
2019-04-25T12:02:43.934Z,23.96
2019-04-25T12:05:16.387Z,23.98
2019-04-25T12:07:46.610Z,23.82
2019-04-25T12:10:17.685Z,23.93
2019-04-25T12:12:50.181Z,23.87
2019-04-25T12:15:19.871Z,23.86
2019-04-25T12:17:49.563Z,23.94
2019-04-25T12:20:19.230Z,23.95
2019-04-25T12:22:48.982Z,23.88
2019-04-25T12:25:18.980Z,23.76
2019-04-25T12:27:49.962Z,23.73
2019-04-25T12:30:36.802Z,23.66
2019-04-25T12:32:55.161Z,23.87
2019-04-25T12:35:27.224Z,24.02
2019-04-25T12:37:56.759Z,23.96
2019-04-25T12:40:26.543Z,23.85
2019-04-25T12:42:56.551Z,23.98
2019-04-25T12:45:47.939Z,24.07
2019-04-25T12:48:17.567Z,24.15
2019-04-25T12:50:48.817Z,24.09
2019-04-25T12:53:18.366Z,24.01
2019-04-25T12:55:49.222Z,23.83
2019-04-25T12:58:20.303Z,23.94
2019-04-25T13:00:54.220Z,23.74
2019-04-25T13:03:21.560Z,23.72
2019-04-25T13:05:52.096Z,23.66
2019-04-25T13:08:24.226Z,23.78
2019-04-25T13:10:54.338Z,23.75
2019-04-25T13:13:25.008Z,23.72
2019-04-25T13:15:56.419Z,23.75
2019-04-25T13:18:25.960Z,23.90
2019-04-25T13:20:57.175Z,24.00
2019-04-25T13:23:28.201Z,24.02
2019-04-25T13:25:57.730Z,24.00
2019-04-25T13:28:45.143Z,24.06
2019-04-25T13:31:33.187Z,24.20
2019-04-25T13:34:16.577Z,24.13
2019-04-25T13:36:48.415Z,24.22
2019-04-25T13:39:24.049Z,24.34
2019-04-25T13:41:54.385Z,24.43
2019-04-25T13:44:25.747Z,24.45
2019-04-25T13:46:56.390Z,24.40
2019-04-25T13:49:25.814Z,24.39
2019-04-25T13:51:56.307Z,24.36
2019-04-25T13:54:28.700Z,24.35
2019-04-25T13:56:58.095Z,24.46
2019-04-25T13:59:28.996Z,24.49
2019-04-25T14:02:01.704Z,24.50
2019-04-25T14:04:34.374Z,24.49
2019-04-25T14:07:03.810Z,24.52
2019-04-25T14:09:34.690Z,24.37
2019-04-25T14:12:06.282Z,24.44
2019-04-25T14:14:36.782Z,24.50
2019-04-25T14:17:24.809Z,24.54
2019-04-25T14:20:11.663Z,24.70
2019-04-25T14:22:43.204Z,24.67
2019-04-25T14:25:15.421Z,24.59
2019-04-25T14:27:44.891Z,24.55
2019-04-25T14:30:17.912Z,24.72
2019-04-25T14:32:47.417Z,24.84
2019-04-25T14:35:16.880Z,24.67
2019-04-25T14:37:48.080Z,24.75
2019-04-25T14:40:17.662Z,24.59
2019-04-25T14:42:48.362Z,24.74
2019-04-25T14:45:18.765Z,24.81
2019-04-25T14:47:48.348Z,24.83
2019-04-25T14:50:18.282Z,24.89
2019-04-25T14:52:48.203Z,24.84
2019-04-25T14:55:46.941Z,24.79
2019-04-25T14:58:18.034Z,24.85
2019-04-25T15:00:49.512Z,24.73
2019-04-25T15:03:23.083Z,24.71
2019-04-25T15:05:53.486Z,24.90
2019-04-25T15:08:23.989Z,24.88
2019-04-25T15:10:55.620Z,25.20
2019-04-25T15:13:25.828Z,25.43
2019-04-25T15:15:55.524Z,25.48
2019-04-25T15:18:25.344Z,25.30
2019-04-25T15:20:54.860Z,25.08
2019-04-25T15:23:25.334Z,25.24
2019-04-25T15:25:56.211Z,25.11
2019-04-25T15:28:27.558Z,25.08
2019-04-25T15:30:57.365Z,25.17
2019-04-25T15:33:30.361Z,25.21
2019-04-25T15:36:07.007Z,25.21
2019-04-25T15:38:45.735Z,25.22
2019-04-25T15:41:38.559Z,25.17
2019-04-25T15:44:27.677Z,25.35
2019-04-25T15:46:58.353Z,25.41
2019-04-25T15:49:29.010Z,25.35
2019-04-25T15:51:58.755Z,25.10
2019-04-25T15:54:29.703Z,25.01
2019-04-25T15:56:59.075Z,24.88
2019-04-25T15:59:30.779Z,24.95
2019-04-25T16:02:08.002Z,25.01
2019-04-25T16:04:33.452Z,25.01
2019-04-25T16:07:06.154Z,24.79
2019-04-25T16:09:36.541Z,24.80
2019-04-25T16:12:07.259Z,24.76
2019-04-25T16:14:36.971Z,24.84
2019-04-25T16:17:07.965Z,24.75
2019-04-25T16:19:37.607Z,24.73
2019-04-25T16:22:07.352Z,24.78
2019-04-25T16:24:37.101Z,24.73
2019-04-25T16:27:08.310Z,24.64
2019-04-25T16:29:39.474Z,24.57
2019-04-25T16:32:20.364Z,24.56
2019-04-25T16:34:43.047Z,24.61
2019-04-25T16:37:14.270Z,24.60
2019-04-25T16:39:46.420Z,24.67
2019-04-25T16:42:15.971Z,24.71
2019-04-25T16:44:45.833Z,24.70
2019-04-25T16:47:16.809Z,24.65
2019-04-25T16:49:46.158Z,24.46
2019-04-25T16:52:17.706Z,24.45
2019-04-25T16:54:49.307Z,24.44
2019-04-25T16:57:18.817Z,24.38
2019-04-25T16:59:49.664Z,24.37
2019-04-25T17:02:32.427Z,24.35
2019-04-25T17:04:55.500Z,24.27
2019-04-25T17:07:26.660Z,24.28
2019-04-25T17:09:56.094Z,24.30
2019-04-25T17:12:26.184Z,24.19
2019-04-25T17:15:12.499Z,24.19
2019-04-25T17:17:48.877Z,24.24
2019-04-25T17:20:25.138Z,24.17
2019-04-25T17:22:54.690Z,23.97
2019-04-25T17:25:26.161Z,23.97
2019-04-25T17:27:56.764Z,23.96
2019-04-25T17:30:31.202Z,23.89
2019-04-25T17:33:22.409Z,23.86
2019-04-25T17:36:01.766Z,23.77
2019-04-25T17:38:38.655Z,23.78
2019-04-25T17:41:10.583Z,23.80
2019-04-25T17:43:40.206Z,23.81
2019-04-25T17:46:11.130Z,23.77
2019-04-25T17:48:43.113Z,23.83
2019-04-25T17:51:14.408Z,23.76
2019-04-25T17:53:45.336Z,23.74
2019-04-25T17:56:16.153Z,23.67
2019-04-25T17:58:45.663Z,23.58
2019-04-25T18:01:19.559Z,23.56
2019-04-25T18:03:48.992Z,23.53
2019-04-25T18:06:18.632Z,23.47
2019-04-25T18:08:49.042Z,23.44
2019-04-25T18:11:18.763Z,23.41
2019-04-25T18:16:21.983Z,23.30
2019-04-25T18:19:10.443Z,23.26
2019-04-25T18:21:40.717Z,23.20
2019-04-25T18:24:27.194Z,23.14
2019-04-25T18:27:08.654Z,23.07
2019-04-25T18:29:41.625Z,23.00
2019-04-25T18:32:11.204Z,22.94
2019-04-25T18:34:47.058Z,22.86
2019-04-25T18:37:45.066Z,22.81
2019-04-25T18:40:27.745Z,22.77
2019-04-25T18:43:28.475Z,22.61
2019-04-25T18:46:06.046Z,22.58
2019-04-25T18:48:36.895Z,22.55
2019-04-25T18:51:07.817Z,22.49
2019-04-25T18:54:01.566Z,22.48
2019-04-25T18:56:39.000Z,22.42
2019-04-25T18:59:32.005Z,22.35
2019-04-25T19:02:23.932Z,22.25
2019-04-25T19:05:21.293Z,22.20
2019-04-25T19:07:51.600Z,22.15
2019-04-25T19:10:21.592Z,22.06
2019-04-25T19:12:51.923Z,22.04
2019-04-25T19:15:22.720Z,22.04
2019-04-25T19:17:52.293Z,22.01
2019-04-25T19:20:22.442Z,21.93
2019-04-25T19:22:52.617Z,21.91
2019-04-25T19:25:22.152Z,21.86
2019-04-25T19:27:51.682Z,21.84
2019-04-25T19:30:21.144Z,21.78
2019-04-25T19:32:51.596Z,21.69
2019-04-25T19:35:22.227Z,21.60
2019-04-25T19:37:54.363Z,21.45
2019-04-25T19:40:41.183Z,21.50
2019-04-25T19:43:19.092Z,21.49
2019-04-25T19:45:52.072Z,21.44
2019-04-25T19:48:25.479Z,21.38
2019-04-25T19:50:56.035Z,21.32
2019-04-25T19:53:26.565Z,21.33
2019-04-25T19:55:57.821Z,21.18
2019-04-25T19:58:28.720Z,21.08
2019-04-25T20:00:58.480Z,21.09
2019-04-25T20:04:04.932Z,21.09
2019-04-25T20:06:54.674Z,21.04
2019-04-25T20:09:47.065Z,21.02
2019-04-25T20:12:18.064Z,20.99
2019-04-25T20:14:51.288Z,20.86
2019-04-25T20:17:22.840Z,20.74
2019-04-25T20:19:52.279Z,20.72
2019-04-25T20:22:21.843Z,20.75
2019-04-25T20:24:52.491Z,20.74
2019-04-25T20:27:22.180Z,20.69
2019-04-25T20:29:54.618Z,20.66
2019-04-25T20:32:24.506Z,20.62
2019-04-25T20:34:55.051Z,20.59
2019-04-25T20:37:25.757Z,20.57
2019-04-25T20:39:56.953Z,20.62
2019-04-25T20:42:26.452Z,20.61
2019-04-25T20:44:57.756Z,20.61
2019-04-25T20:47:28.803Z,20.63
2019-04-25T20:49:59.288Z,20.63
2019-04-25T20:52:28.810Z,20.67
2019-04-25T20:54:58.452Z,20.65
2019-04-25T20:57:29.755Z,20.65
2019-04-25T21:00:00.993Z,20.64
2019-04-25T21:02:30.871Z,20.55
2019-04-25T21:05:01.281Z,20.55
2019-04-25T21:07:32.566Z,20.51
2019-04-25T21:10:03.300Z,20.55
2019-04-25T21:12:34.134Z,20.53
2019-04-25T21:15:33.727Z,20.53
2019-04-25T21:18:22.283Z,20.49
2019-04-25T21:20:53.200Z,20.52
2019-04-25T21:23:24.047Z,20.47
2019-04-25T21:25:54.750Z,20.43
2019-04-25T21:28:25.658Z,20.44
2019-04-25T21:30:55.215Z,20.41
2019-04-25T21:33:24.591Z,20.36
2019-04-25T21:35:55.516Z,20.36
2019-04-25T21:38:25.182Z,20.32
2019-04-25T21:41:07.639Z,20.28
2019-04-25T21:43:41.900Z,20.23
2019-04-25T21:46:12.751Z,20.27
2019-04-25T21:48:43.048Z,20.19
2019-04-25T21:51:30.396Z,20.14
2019-04-25T21:54:00.404Z,20.12
2019-04-25T21:56:31.502Z,20.04
2019-04-25T21:59:04.115Z,19.97
2019-04-25T22:01:37.813Z,19.98
2019-04-25T22:04:07.497Z,19.97
2019-04-25T22:06:37.193Z,19.97
2019-04-25T22:09:10.637Z,19.84
2019-04-25T22:11:41.918Z,19.84
2019-04-25T22:14:13.741Z,19.81
2019-04-25T22:16:43.637Z,19.78
2019-04-25T22:19:13.781Z,19.72
2019-04-25T22:21:44.548Z,19.69
2019-04-25T22:24:16.592Z,19.63
2019-04-25T22:26:49.660Z,19.68
2019-04-25T22:29:19.294Z,19.67
2019-04-25T22:31:59.375Z,19.63
2019-04-25T22:34:37.953Z,19.56
2019-04-25T22:37:09.240Z,19.57
2019-04-25T22:39:41.555Z,19.55
2019-04-25T22:42:11.207Z,19.59
2019-04-25T22:44:44.714Z,19.61
2019-04-25T22:47:17.606Z,19.64
2019-04-25T22:49:47.302Z,19.66
2019-04-25T22:52:18.149Z,19.65
2019-04-25T22:54:49.249Z,19.65
2019-04-25T22:57:19.036Z,19.63
2019-04-25T22:59:48.954Z,19.51
2019-04-25T23:02:45.174Z,19.47
2019-04-25T23:05:39.674Z,19.44
2019-04-25T23:08:10.110Z,19.41
2019-04-25T23:10:39.608Z,19.41
2019-04-25T23:13:10.939Z,19.37
2019-04-25T23:15:43.904Z,19.39
2019-04-25T23:18:13.611Z,19.26
2019-04-25T23:20:45.175Z,19.29
2019-04-25T23:23:16.332Z,19.32
2019-04-25T23:25:58.784Z,19.35
2019-04-25T23:28:33.650Z,19.26
2019-04-25T23:31:19.236Z,19.30
2019-04-25T23:33:49.995Z,19.27
2019-04-25T23:36:20.578Z,19.28
2019-04-25T23:38:51.864Z,19.30
2019-04-25T23:41:21.637Z,19.26
2019-04-25T23:43:53.962Z,19.32
2019-04-25T23:46:24.129Z,19.31
2019-04-25T23:48:53.679Z,19.39
2019-04-25T23:51:26.928Z,19.38
2019-04-25T23:53:56.997Z,19.35
2019-04-25T23:56:28.048Z,19.38
2019-04-25T23:58:58.000Z,19.44
